Time;durP1;ratioP1;P1;durP2;ratioP2;P2;SDS_P1;SDS_P2;PMS_P1;PMS_P2;Temp;Humidity;BMP_temperature;BMP_pressure;BME280_temperature;BME280_humidity;BME280_pressure;Samples;Min_cycle;Max_cycle;Signal;HPM_P1;HPM_P2
2021/12/21 00:00:21;;;;;;;13.50;4.97;;;;;;;-2.57;74.24;99133.00;5111567;28;20019;-81
2021/12/21 00:02:50;;;;;;;12.95;5.22;;;;;;;-2.53;74.28;99138.78;5111477;28;20050;-81
2021/12/21 00:05:19;;;;;;;9.48;3.78;;;;;;;-2.54;73.98;99129.06;5093749;28;20554;-81
2021/12/21 00:07:47;;;;;;;15.57;5.10;;;;;;;-2.51;74.14;99120.63;5111111;28;20019;-79
2021/12/21 00:10:12;;;;;;;12.32;4.53;;;;;;;-2.53;74.18;99120.00;5110902;28;20039;-83
2021/12/21 00:12:48;;;;;;;12.60;4.65;;;;;;;-2.54;74.10;99123.72;5111050;28;20016;-82
2021/12/21 00:18:04;;;;;;;11.68;4.55;;;;;;;-2.58;74.01;99117.06;5111239;28;20028;-82
2021/12/21 00:20:47;;;;;;;13.55;5.13;;;;;;;-2.56;73.62;99125.75;5110975;28;20100;-82
2021/12/21 00:23:30;;;;;;;12.73;4.45;;;;;;;-2.60;74.02;99130.69;5110671;28;20030;-82
2021/12/21 00:25:59;;;;;;;11.07;4.53;;;;;;;-2.62;74.02;99126.53;5109387;28;20034;-83
2021/12/21 00:28:26;;;;;;;12.85;4.85;;;;;;;-2.63;74.42;99132.91;5109789;28;20063;-83
2021/12/21 00:30:52;;;;;;;11.40;4.80;;;;;;;-2.64;74.39;99131.25;5091556;28;20035;-82
2021/12/21 00:33:17;;;;;;;8.68;3.75;;;;;;;-2.61;74.59;99136.25;5110279;28;20042;-82
2021/12/21 00:35:44;;;;;;;8.82;4.03;;;;;;;-2.60;74.18;99136.06;5111177;28;20027;-81
2021/12/21 00:38:09;;;;;;;10.10;4.25;;;;;;;-2.57;74.10;99134.84;5091570;28;20032;-79
2021/12/21 00:40:35;;;;;;;7.43;3.30;;;;;;;-2.55;74.48;99136.31;5110147;28;20089;-81
2021/12/21 00:43:00;;;;;;;8.93;4.10;;;;;;;-2.53;74.44;99137.97;5110587;28;20476;-81
2021/12/21 00:45:26;;;;;;;8.95;3.83;;;;;;;-2.56;74.33;99120.38;5110711;28;20118;-82
2021/12/21 00:47:52;;;;;;;8.63;3.53;;;;;;;-2.55;73.75;99124.72;5111372;28;20376;-82
2021/12/21 00:50:19;;;;;;;6.55;3.38;;;;;;;-2.46;74.45;99141.56;5110129;28;20028;-80
2021/12/21 00:52:51;;;;;;;6.72;3.10;;;;;;;-2.43;74.31;99141.97;5105119;28;20035;-82
2021/12/21 00:55:17;;;;;;;9.05;4.10;;;;;;;-2.42;74.41;99142.81;5092869;28;20038;-81
2021/12/21 00:57:43;;;;;;;8.68;3.60;;;;;;;-2.44;74.39;99145.69;5109993;28;20023;-81
2021/12/21 01:00:11;;;;;;;8.48;3.60;;;;;;;-2.45;74.48;99152.09;5108749;28;20418;-81
2021/12/21 01:02:37;;;;;;;10.30;4.50;;;;;;;-2.47;74.09;99154.13;5108578;28;20039;-82
2021/12/21 01:05:06;;;;;;;11.05;5.03;;;;;;;-2.41;74.54;99148.00;5106358;28;20521;-83
2021/12/21 01:07:37;;;;;;;12.60;5.45;;;;;;;-2.40;74.40;99149.66;5090597;28;20028;-83
2021/12/21 01:12:57;;;;;;;12.23;5.75;;;;;;;-2.42;74.63;99149.03;5107448;28;20070;-81
2021/12/21 01:15:59;;;;;;;10.35;5.03;;;;;;;-2.42;74.43;99145.50;5109004;28;20153;-80
2021/12/21 01:18:34;;;;;;;11.43;5.00;;;;;;;-2.44;74.44;99140.31;5108814;28;20053;-77
2021/12/21 01:26:07;;;;;;;9.43;4.45;;;;;;;-2.47;74.87;99147.94;5110111;28;20392;-79
2021/12/21 01:39:30;;;;;;;12.90;5.50;;;;;;;-2.40;74.57;99140.75;5069190;28;20039;-78
2021/12/21 01:49:51;;;;;;;14.88;5.75;;;;;;;-2.36;74.86;99144.72;5108738;28;20031;-79
2021/12/21 01:52:24;;;;;;;19.42;6.28;;;;;;;-2.39;74.82;99134.34;5107757;28;20027;-79
2021/12/21 01:54:51;;;;;;;17.88;5.95;;;;;;;-2.37;74.91;99132.31;5108412;28;20039;-79
2021/12/21 01:57:16;;;;;;;19.00;8.30;;;;;;;-2.38;74.83;99133.31;5108336;28;20098;-79
2021/12/21 01:59:44;;;;;;;35.05;16.42;;;;;;;-2.40;74.75;99135.38;5108159;28;20019;-80
2021/12/21 02:02:15;;;;;;;12.73;5.40;;;;;;;-2.43;74.72;99128.56;5109146;28;20069;-80
2021/12/21 02:04:41;;;;;;;18.05;6.20;;;;;;;-2.48;75.02;99128.31;5112660;28;20024;-80
2021/12/21 02:07:08;;;;;;;13.52;5.05;;;;;;;-2.51;75.26;99123.31;5094774;28;20020;-80
2021/12/21 02:09:37;;;;;;;13.13;5.40;;;;;;;-2.48;75.54;99130.16;5113010;28;20031;-80
2021/12/21 02:12:12;;;;;;;12.80;5.88;;;;;;;-2.39;75.52;99131.66;5112679;28;20031;-80
2021/12/21 02:14:39;;;;;;;12.93;6.25;;;;;;;-2.31;75.52;99115.41;5113240;28;20027;-80
2021/12/21 02:17:41;;;;;;;15.43;6.45;;;;;;;-2.22;75.54;99129.50;5110272;28;20043;-80
2021/12/21 02:20:25;;;;;;;15.57;7.15;;;;;;;-2.28;75.19;99115.00;5113205;28;20040;-80
2021/12/21 02:23:05;;;;;;;16.63;7.38;;;;;;;-2.34;75.04;99125.72;5111904;28;20016;-80
2021/12/21 02:30:44;;;;;;;15.35;6.28;;;;;;;-2.32;75.31;99127.19;5113334;28;20547;-80
2021/12/21 02:33:12;;;;;;;12.50;5.50;;;;;;;-2.31;75.49;99119.97;5112959;28;20033;-79
2021/12/21 02:35:38;;;;;;;13.93;5.70;;;;;;;-2.32;75.34;99126.38;5113710;28;20469;-81
2021/12/21 02:38:03;;;;;;;10.90;5.03;;;;;;;-2.26;75.97;99121.03;5113120;28;20039;-80
2021/12/21 02:40:29;;;;;;;13.52;5.25;;;;;;;-2.26;75.71;99123.72;5113709;27;20024;-80
2021/12/21 02:42:55;;;;;;;13.20;5.25;;;;;;;-2.27;75.46;99114.00;5112844;28;20022;-80
2021/12/21 02:45:20;;;;;;;12.40;5.40;;;;;;;-2.29;75.65;99115.22;5112863;28;20471;-80
2021/12/21 02:47:45;;;;;;;10.40;5.13;;;;;;;-2.32;75.64;99107.56;5112371;28;20034;-80
2021/12/21 02:50:11;;;;;;;13.93;6.32;;;;;;;-2.32;75.83;99115.63;5112019;28;20504;-80
2021/12/21 02:52:36;;;;;;;10.50;5.78;;;;;;;-2.31;75.96;99114.59;5112558;28;20543;-80
2021/12/21 02:55:04;;;;;;;13.68;6.13;;;;;;;-2.35;76.04;99110.63;5112571;28;20031;-80
2021/12/21 02:57:30;;;;;;;12.35;6.28;;;;;;;-2.36;75.82;99108.97;5112397;28;20032;-80
2021/12/21 02:59:55;;;;;;;12.40;5.78;;;;;;;-2.40;76.01;99109.38;5111814;28;20031;-80
2021/12/21 03:02:21;;;;;;;11.60;5.55;;;;;;;-2.35;76.17;99102.56;5111566;28;20027;-80
2021/12/21 03:04:46;;;;;;;13.02;6.20;;;;;;;-2.29;76.52;99112.53;5112125;28;20036;-80
2021/12/21 03:10:00;;;;;;;12.90;6.18;;;;;;;-2.21;76.16;99107.00;5111221;28;20126;-80
2021/12/21 03:14:57;;;;;;;13.85;6.28;;;;;;;-2.36;76.63;99109.78;5111780;28;20032;-81
2021/12/21 03:17:23;;;;;;;14.23;6.95;;;;;;;-2.33;76.87;99103.22;5111566;28;20472;-80
2021/12/21 03:19:49;;;;;;;14.77;7.05;;;;;;;-2.39;76.70;99112.84;5112176;28;20023;-80
2021/12/21 03:22:15;;;;;;;19.30;7.38;;;;;;;-2.48;77.08;99116.75;5111158;28;20039;-80
2021/12/21 03:24:44;;;;;;;12.82;5.95;;;;;;;-2.46;77.15;99110.13;5093528;28;20065;-80
2021/12/21 03:27:10;;;;;;;17.15;8.40;;;;;;;-2.40;77.28;99120.09;5111656;28;20035;-80
2021/12/21 03:29:36;;;;;;;14.05;7.28;;;;;;;-2.43;77.28;99112.44;5111973;28;20031;-80
2021/12/21 03:32:02;;;;;;;14.93;6.30;;;;;;;-2.44;77.25;99109.94;5111149;28;20486;-80
2021/12/21 03:34:28;;;;;;;13.57;6.80;;;;;;;-2.45;77.43;99114.47;5112019;28;20020;-80
2021/12/21 03:36:54;;;;;;;13.68;6.88;;;;;;;-2.45;77.19;99122.53;5093252;28;20023;-80
2021/12/21 03:39:21;;;;;;;14.55;7.18;;;;;;;-2.38;77.30;99113.72;5093480;28;20036;-80
2021/12/21 03:41:51;;;;;;;16.83;7.50;;;;;;;-2.33;77.73;99124.69;5111245;28;20471;-80
2021/12/21 03:44:18;;;;;;;18.73;8.73;;;;;;;-2.35;77.70;99116.81;5111176;28;20429;-81
2021/12/21 03:46:50;;;;;;;47.63;20.08;;;;;;;-2.32;77.71;99118.31;5109277;28;20019;-80
2021/12/21 03:50:11;;;;;;;39.97;15.93;;;;;;;-2.29;77.65;99116.03;5093043;28;20024;-81
2021/12/21 03:52:11;;;;;;;41.03;16.00;;;;;;;-2.21;78.05;99109.69;5092852;28;20043;-80
2021/12/21 03:54:39;;;;;;;48.88;17.23;;;;;;;-2.13;78.05;99125.66;5111473;28;20027;-81
2021/12/21 03:57:05;;;;;;;34.17;12.90;;;;;;;-2.15;77.80;99116.94;5108500;28;20027;-81
2021/12/21 03:59:30;;;;;;;29.08;10.90;;;;;;;-2.16;78.14;99111.78;5111655;28;20489;-81
2021/12/21 04:01:56;;;;;;;34.00;13.48;;;;;;;-2.17;78.07;99113.63;5092336;28;20555;-80
2021/12/21 04:04:23;;;;;;;33.38;12.45;;;;;;;-2.20;78.49;99114.03;5110608;28;20067;-81
2021/12/21 04:06:49;;;;;;;30.17;11.82;;;;;;;-2.19;78.18;99120.25;5111033;28;20012;-80
2021/12/21 04:09:14;;;;;;;34.97;12.52;;;;;;;-2.23;78.33;99125.16;5110991;28;20030;-81
2021/12/21 04:11:40;;;;;;;29.77;12.00;;;;;;;-2.26;78.43;99128.28;5111046;28;20137;-81
2021/12/21 04:14:06;;;;;;;27.92;11.40;;;;;;;-2.25;78.55;99125.38;5110567;28;20422;-81
2021/12/21 04:16:31;;;;;;;32.42;14.07;;;;;;;-2.27;78.21;99121.22;5111037;28;20058;-81
2021/12/21 04:18:57;;;;;;;27.33;11.85;;;;;;;-2.27;78.53;99129.28;5110658;28;20679;-82
2021/12/21 04:21:22;;;;;;;27.08;12.95;;;;;;;-2.28;78.56;99127.63;5110286;28;20080;-81
2021/12/21 04:23:48;;;;;;;31.35;14.07;;;;;;;-2.28;78.44;99124.94;5110596;28;20016;-82
2021/12/21 04:26:15;;;;;;;28.92;13.63;;;;;;;-2.31;78.34;99130.72;5110149;28;20030;-81
2021/12/21 04:28:41;;;;;;;21.92;10.00;;;;;;;-2.30;78.71;99130.50;5110222;28;20030;-80
2021/12/21 04:31:09;;;;;;;33.38;18.42;;;;;;;-2.26;78.51;99136.34;5110559;28;20104;-79
2021/12/21 04:33:34;;;;;;;23.20;12.30;;;;;;;-2.23;78.78;99130.53;5091950;28;20074;-80
2021/12/21 04:36:01;;;;;;;22.40;12.85;;;;;;;-2.23;78.65;99130.53;5110706;28;20051;-80
2021/12/21 04:38:31;;;;;;;35.10;21.42;;;;;;;-2.24;78.79;99134.25;5110344;28;20049;-80
2021/12/21 04:41:09;;;;;;;31.98;16.60;;;;;;;-2.24;78.68;99128.88;5111268;27;20020;-80
2021/12/21 04:43:35;;;;;;;33.55;12.48;;;;;;;-2.22;78.16;99132.19;5092862;28;20015;-80
2021/12/21 04:46:00;;;;;;;34.67;10.43;;;;;;;-2.21;78.61;99138.41;5110090;28;20046;-80
2021/12/21 04:48:26;;;;;;;39.63;13.23;;;;;;;-2.23;78.69;99133.22;5110274;28;20491;-80
2021/12/21 04:50:52;;;;;;;26.77;11.13;;;;;;;-2.19;78.42;99141.75;5109941;28;20472;-80
2021/12/21 04:53:18;;;;;;;15.20;8.10;;;;;;;-2.17;78.65;99142.38;5109964;28;20024;-80
2021/12/21 04:55:43;;;;;;;31.85;11.50;;;;;;;-2.12;78.36;99148.00;5110415;28;20224;-81
2021/12/21 04:58:09;;;;;;;40.05;16.77;;;;;;;-2.11;78.65;99134.34;5091531;28;20028;-80
2021/12/21 05:00:37;;;;;;;23.75;9.50;;;;;;;-2.08;78.26;99140.34;5110273;28;20019;-81
2021/12/21 05:03:02;;;;;;;42.47;15.30;;;;;;;-2.07;78.67;99144.72;5091532;28;20047;-81
2021/12/21 05:05:28;;;;;;;26.95;10.32;;;;;;;-2.07;78.01;99145.56;5091614;28;20023;-81
2021/12/21 05:08:39;;;;;;;25.55;9.48;;;;;;;-2.14;78.36;99158.13;5110117;28;20050;-80
2021/12/21 05:10:48;;;;;;;28.08;11.07;;;;;;;-2.16;78.67;99147.53;5077129;28;20076;-80
2021/12/21 05:13:15;;;;;;;22.15;8.60;;;;;;;-2.20;78.35;99146.28;5102233;28;20562;-81
2021/12/21 05:15:42;;;;;;;21.70;7.88;;;;;;;-2.25;78.50;99154.94;5109011;28;20050;-80
2021/12/21 05:18:07;;;;;;;18.00;7.43;;;;;;;-2.28;78.74;99146.44;5109653;28;20062;-80
2021/12/21 05:20:33;;;;;;;17.48;7.75;;;;;;;-2.28;78.71;99157.19;5109816;28;20043;-80
2021/12/21 05:22:58;;;;;;;27.45;9.70;;;;;;;-2.31;78.56;99147.66;5110200;28;20532;-80
2021/12/21 05:25:24;;;;;;;31.70;11.82;;;;;;;-2.30;78.57;99157.38;5110439;28;20069;-80
2021/12/21 05:27:49;;;;;;;30.98;10.90;;;;;;;-2.31;78.97;99161.09;5109864;28;20383;-80
2021/12/21 05:30:15;;;;;;;25.23;9.95;;;;;;;-2.32;78.74;99159.41;5109761;28;20073;-80
2021/12/21 05:32:41;;;;;;;31.10;10.27;;;;;;;-2.32;79.02;99156.72;5109784;28;20395;-80
2021/12/21 05:35:09;;;;;;;22.45;8.63;;;;;;;-2.27;79.32;99161.53;5088922;28;20075;-81
2021/12/21 05:37:36;;;;;;;27.25;10.82;;;;;;;-2.31;78.90;99158.41;5112958;28;20407;-79
2021/12/21 05:40:11;;;;;;;32.22;13.02;;;;;;;-2.29;79.13;99169.78;5115140;28;20023;-81
2021/12/21 05:42:37;;;;;;;19.77;8.27;;;;;;;-2.25;78.87;99157.63;5114755;28;20077;-79
2021/12/21 05:45:04;;;;;;;17.25;7.28;;;;;;;-2.20;79.19;99162.41;5114326;27;20035;-80
2021/12/21 05:47:29;;;;;;;25.05;9.93;;;;;;;-2.18;78.75;99157.66;5099324;28;20607;-80
2021/12/21 05:49:55;;;;;;;16.88;7.20;;;;;;;-2.16;79.05;99166.34;5117348;27;20077;-80
2021/12/21 05:52:20;;;;;;;14.35;6.32;;;;;;;-2.10;79.17;99162.06;5118883;28;20046;-80
2021/12/21 05:54:45;;;;;;;14.02;5.78;;;;;;;-2.12;78.58;99153.38;5116531;28;20466;-80
2021/12/21 05:57:11;;;;;;;11.00;5.15;;;;;;;-2.19;79.02;99160.56;5099299;28;20030;-81
2021/12/21 05:59:36;;;;;;;16.70;6.38;;;;;;;-2.28;78.68;99158.00;5115696;28;20029;-80
2021/12/21 06:02:02;;;;;;;26.48;9.35;;;;;;;-2.32;79.07;99162.09;5114979;28;20019;-81
2021/12/21 06:04:28;;;;;;;35.22;10.38;;;;;;;-2.33;78.94;99173.06;5115434;28;20097;-80
2021/12/21 06:06:53;;;;;;;30.20;10.13;;;;;;;-2.35;79.04;99162.50;5115334;28;20468;-80
2021/12/21 06:09:19;;;;;;;32.92;10.27;;;;;;;-2.34;79.01;99164.16;5115070;28;20098;-81
2021/12/21 06:11:53;;;;;;;40.63;12.18;;;;;;;-2.30;79.29;99170.00;5115282;28;20391;-81
2021/12/21 06:27:31;;;;;;;15.52;8.18;;;;;;;-2.36;79.34;99190.38;5118617;28;20073;-80
2021/12/21 06:29:57;;;;;;;24.42;11.60;;;;;;;-2.33;79.21;99194.56;5101887;28;20729;-80
2021/12/21 06:32:22;;;;;;;42.22;18.15;;;;;;;-2.32;79.23;99183.59;5119265;28;20031;-80
2021/12/21 06:34:48;;;;;;;24.02;10.02;;;;;;;-2.30;79.09;99205.75;5119402;28;20020;-80
2021/12/21 06:37:13;;;;;;;20.90;8.63;;;;;;;-2.30;79.43;99204.91;5116835;28;20066;-80
2021/12/21 06:39:39;;;;;;;13.93;7.00;;;;;;;-2.28;79.21;99194.81;5117400;28;20035;-80
2021/12/21 06:42:05;;;;;;;14.27;7.55;;;;;;;-2.26;78.92;99195.44;5099092;28;20026;-80
2021/12/21 06:44:31;;;;;;;28.60;10.68;;;;;;;-2.25;79.05;99197.13;5119000;28;20059;-81
2021/12/21 06:52:13;;;;;;;18.42;7.10;;;;;;;-2.21;79.14;99198.34;5117686;28;20043;-80
2021/12/21 06:54:38;;;;;;;27.50;9.82;;;;;;;-2.14;79.13;99195.75;5117654;28;20028;-80
2021/12/21 06:57:04;;;;;;;63.45;17.60;;;;;;;-2.11;78.73;99206.91;5115747;28;20023;-80
2021/12/21 06:59:30;;;;;;;86.57;21.33;;;;;;;-2.12;78.96;99216.00;5116216;28;20040;-80
2021/12/21 07:01:56;;;;;;;50.90;12.55;;;;;;;-2.14;79.11;99214.56;5115852;28;20152;-80
2021/12/21 07:04:21;;;;;;;20.08;7.18;;;;;;;-2.11;79.10;99216.84;5116307;28;20044;-81
2021/12/21 07:06:47;;;;;;;27.00;9.30;;;;;;;-2.12;78.91;99226.75;5098853;28;20019;-81
2021/12/21 07:09:27;;;;;;;45.63;13.73;;;;;;;-2.18;78.67;99218.66;5118014;28;20016;-80
2021/12/21 07:20:22;;;;;;;50.30;14.45;;;;;;;-2.28;79.07;99238.63;5111427;28;20498;-80
2021/12/21 07:22:47;;;;;;;52.67;15.70;;;;;;;-2.30;79.14;99232.59;5116587;28;20023;-80
2021/12/21 07:25:13;;;;;;;43.55;13.02;;;;;;;-2.28;79.24;99233.25;5115723;28;20063;-79
2021/12/21 07:27:38;;;;;;;24.83;9.15;;;;;;;-2.29;79.29;99222.72;5115780;28;20034;-80
2021/12/21 07:30:05;;;;;;;26.63;10.32;;;;;;;-2.30;79.31;99229.91;5097394;28;20066;-80
2021/12/21 07:32:31;;;;;;;35.03;13.00;;;;;;;-2.28;79.45;99233.25;5115103;28;20023;-80
2021/12/21 07:34:57;;;;;;;27.25;11.13;;;;;;;-2.20;79.38;99229.59;5114492;28;20038;-80
2021/12/21 07:37:22;;;;;;;31.58;11.30;;;;;;;-2.18;79.52;99232.91;5114250;28;20027;-80
2021/12/21 07:39:48;;;;;;;55.20;18.17;;;;;;;-2.18;78.95;99232.09;5115793;28;20031;-80
2021/12/21 07:42:13;;;;;;;38.50;14.30;;;;;;;-2.20;79.16;99224.22;5114549;28;20111;-80
2021/12/21 07:44:38;;;;;;;43.33;16.90;;;;;;;-2.20;78.85;99234.97;5114801;28;20019;-80
2021/12/21 07:47:04;;;;;;;31.48;12.00;;;;;;;-2.20;78.90;99234.13;5096359;28;20532;-80
2021/12/21 07:49:30;;;;;;;35.47;12.18;;;;;;;-2.17;79.22;99236.44;5115013;28;20031;-80
2021/12/21 07:51:56;;;;;;;87.38;33.10;;;;;;;-2.11;79.41;99233.81;5115099;28;20427;-80
2021/12/21 07:54:21;;;;;;;31.38;13.05;;;;;;;-2.07;78.86;99226.19;5097339;28;20031;-81
2021/12/21 07:56:47;;;;;;;18.88;8.38;;;;;;;-2.01;79.16;99225.38;5097130;28;20039;-80
2021/12/21 07:59:12;;;;;;;16.92;7.80;;;;;;;-1.92;79.13;99230.63;5097013;28;20043;-81
2021/12/21 08:01:39;;;;;;;13.15;6.97;;;;;;;-1.88;79.01;99226.53;5115621;28;20031;-81
2021/12/21 08:04:07;;;;;;;17.35;8.55;;;;;;;-1.84;79.10;99233.16;5115067;28;20043;-80
2021/12/21 08:06:36;;;;;;;25.45;10.57;;;;;;;-1.87;79.05;99226.34;5114877;28;20088;-81
2021/12/21 08:09:03;;;;;;;19.40;8.73;;;;;;;-1.90;78.45;99234.81;5115684;28;20027;-81
2021/12/21 08:14:02;;;;;;;19.15;8.27;;;;;;;-1.88;78.65;99251.56;5116252;27;20039;-81
2021/12/21 08:16:27;;;;;;;27.08;9.27;;;;;;;-1.88;78.59;99248.88;5112644;27;20528;-81
2021/12/21 08:18:53;;;;;;;26.75;9.43;;;;;;;-1.90;78.60;99261.69;5110461;28;20051;-80
2021/12/21 08:21:19;;;;;;;21.35;8.80;;;;;;;-1.91;78.30;99256.47;5108007;28;20019;-83
2021/12/21 08:23:45;;;;;;;16.55;7.97;;;;;;;-1.95;78.50;99256.88;5110008;28;20027;-80
2021/12/21 08:26:11;;;;;;;26.63;10.88;;;;;;;-1.93;78.65;99256.69;5110843;28;20070;-83
2021/12/21 08:28:37;;;;;;;31.20;11.00;;;;;;;-1.90;78.50;99256.31;5108663;28;20472;-83
2021/12/21 08:31:02;;;;;;;17.80;8.15;;;;;;;-1.89;78.23;99255.28;5110392;28;20032;-82
2021/12/21 08:33:28;;;;;;;18.83;8.07;;;;;;;-1.94;78.30;99265.78;5108217;27;20020;-82
2021/12/21 08:35:53;;;;;;;14.05;8.48;;;;;;;-1.98;77.79;99270.72;5111080;28;20028;-82
2021/12/21 08:38:20;;;;;;;20.58;9.70;;;;;;;-1.96;78.53;99273.22;5109395;28;20411;-82
2021/12/21 08:40:49;;;;;;;21.02;9.57;;;;;;;-1.96;78.38;99275.91;5110816;27;20023;-81
2021/12/21 08:43:23;;;;;;;17.10;8.25;;;;;;;-1.95;78.54;99273.00;5108139;27;20075;-82
2021/12/21 08:45:50;;;;;;;16.73;9.75;;;;;;;-1.88;78.56;99285.69;5112967;27;20062;-75
2021/12/21 08:48:16;;;;;;;16.17;7.80;;;;;;;-1.81;78.70;99284.69;5105824;28;20153;-81
2021/12/21 08:50:45;;;;;;;14.80;7.80;;;;;;;-1.67;78.71;99271.34;5108028;27;20067;-83
2021/12/21 08:53:12;;;;;;;25.05;9.20;;;;;;;-1.56;78.31;99284.28;5103343;28;20039;-79
2021/12/21 08:55:38;;;;;;;19.30;8.05;;;;;;;-1.58;77.64;99278.25;5103119;28;20026;-75
2021/12/21 08:58:04;;;;;;;15.85;7.75;;;;;;;-1.60;77.59;99280.31;5108934;28;20114;-78
2021/12/21 09:00:29;;;;;;;23.45;10.82;;;;;;;-1.59;77.60;99284.66;5107996;27;20036;-79
2021/12/21 09:02:55;;;;;;;32.38;14.13;;;;;;;-1.55;77.35;99291.31;5109470;28;20077;-81
2021/12/21 09:05:26;;;;;;;21.92;9.82;;;;;;;-1.59;77.22;99279.28;5108500;28;20463;-78
2021/12/21 09:07:52;;;;;;;17.02;8.10;;;;;;;-1.62;77.32;99287.75;5108283;28;20479;-77
2021/12/21 09:10:20;;;;;;;15.43;8.25;;;;;;;-1.60;77.35;99295.59;5106024;28;20066;-79
2021/12/21 09:12:47;;;;;;;17.80;7.60;;;;;;;-1.57;77.10;99295.22;5108648;28;20085;-78
2021/12/21 09:15:14;;;;;;;24.38;9.93;;;;;;;-1.57;76.84;99292.53;5110384;27;20038;-78
2021/12/21 09:17:41;;;;;;;19.98;7.85;;;;;;;-1.52;77.12;99285.53;5108110;28;20036;-80
2021/12/21 09:20:09;;;;;;;21.38;9.27;;;;;;;-1.45;77.04;99300.91;5108869;28;20028;-83
2021/12/21 09:22:36;;;;;;;21.00;9.35;;;;;;;-1.44;77.01;99295.31;5108609;28;20031;-81
2021/12/21 09:25:03;;;;;;;21.80;9.57;;;;;;;-1.44;77.09;99299.88;5107825;28;20035;-82
2021/12/21 09:27:28;;;;;;;28.25;11.90;;;;;;;-1.37;77.38;99303.41;5091361;28;20028;-78
2021/12/21 09:29:54;;;;;;;47.83;23.35;;;;;;;-1.28;77.32;99294.16;5089616;28;20080;-80
2021/12/21 09:32:20;;;;;;;37.65;15.48;;;;;;;-1.18;76.86;99303.75;5106704;28;20027;-80
2021/12/21 09:34:46;;;;;;;33.03;13.10;;;;;;;-1.18;76.44;99292.97;5104974;28;20081;-83
2021/12/21 09:37:16;;;;;;;27.73;12.43;;;;;;;-1.18;76.13;99301.88;5107937;28;20038;-82
2021/12/21 09:39:43;;;;;;;14.63;8.27;;;;;;;-1.20;75.86;99291.31;5109684;28;20034;-83
2021/12/21 09:42:13;;;;;;;11.55;7.13;;;;;;;-1.18;76.15;99285.72;5109151;28;20031;-79
2021/12/21 09:44:39;;;;;;;14.80;7.75;;;;;;;-1.13;74.58;99294.03;5109766;28;20038;-77
2021/12/21 09:47:06;;;;;;;19.17;9.25;;;;;;;-1.13;75.50;99285.13;5108439;28;20032;-83
2021/12/21 09:49:32;;;;;;;21.27;9.20;;;;;;;-1.13;74.45;99282.44;5109243;28;20024;-80
2021/12/21 09:51:57;;;;;;;13.80;6.70;;;;;;;-1.10;75.00;99280.16;5101104;28;20035;-82
2021/12/21 09:54:25;;;;;;;20.33;8.32;;;;;;;-1.02;74.88;99289.13;5108545;28;20062;-78
2021/12/21 09:56:51;;;;;;;21.90;10.32;;;;;;;-0.95;75.05;99289.97;5089684;28;20043;-83
2021/12/21 09:59:16;;;;;;;16.67;7.55;;;;;;;-0.98;74.97;99288.50;5105319;28;20028;-82
2021/12/21 10:01:42;;;;;;;14.63;7.15;;;;;;;-1.13;73.95;99293.22;5108641;28;20523;-83
2021/12/21 10:04:07;;;;;;;14.48;7.60;;;;;;;-1.16;74.47;99285.53;5085655;28;20059;-82
2021/12/21 10:06:43;;;;;;;15.93;6.90;;;;;;;-1.22;74.13;99281.75;5067551;28;20035;-84
2021/12/21 10:09:09;;;;;;;13.48;6.28;;;;;;;-1.23;73.77;99282.81;5067572;28;20036;-76
2021/12/21 10:11:47;;;;;;;11.50;6.00;;;;;;;-1.21;73.77;99276.19;5067801;28;20110;-80
2021/12/21 10:14:14;;;;;;;10.60;5.47;;;;;;;-1.22;73.36;99285.28;5068484;28;20020;-86
2021/12/21 10:16:40;;;;;;;12.52;6.93;;;;;;;-1.15;73.82;99279.94;5071151;28;20020;-85
2021/12/21 10:19:06;;;;;;;10.55;5.45;;;;;;;-1.07;73.79;99279.78;5067607;28;20035;-85
2021/12/21 10:21:32;;;;;;;23.55;10.63;;;;;;;-0.96;73.24;99281.06;5069018;28;20032;-85
2021/12/21 10:23:57;;;;;;;16.10;9.00;;;;;;;-0.96;72.44;99283.75;5073857;28;20062;-83
2021/12/21 10:26:31;;;;;;;12.27;7.72;;;;;;;-0.96;72.59;99285.63;5072009;28;20032;-78
2021/12/21 10:29:01;;;;;;;14.93;6.85;;;;;;;-0.86;72.38;99288.78;5070064;28;20025;-80
2021/12/21 10:31:48;;;;;;;12.52;6.90;;;;;;;-0.73;72.29;99288.00;5070135;28;20111;-83
2021/12/21 10:34:18;;;;;;;24.42;11.88;;;;;;;-0.63;72.98;99287.59;5071734;28;20028;-80
2021/12/21 10:36:46;;;;;;;30.70;14.38;;;;;;;-0.60;72.18;99284.50;5071820;28;20028;-82
2021/12/21 10:39:23;;;;;;;20.98;12.63;;;;;;;-0.67;71.58;99280.97;5071878;28;20020;-82
2021/12/21 10:41:51;;;;;;;28.63;15.93;;;;;;;-0.73;71.07;99279.06;5071599;28;20025;-82
2021/12/21 10:44:19;;;;;;;23.40;14.05;;;;;;;-0.82;70.01;99273.88;5073210;28;20374;-84
2021/12/21 10:46:47;;;;;;;23.10;13.55;;;;;;;-0.91;69.96;99267.81;5073752;28;20638;-81
2021/12/21 10:49:23;;;;;;;71.25;38.47;;;;;;;-0.93;70.08;99258.31;5072906;28;20512;-85
2021/12/21 10:52:04;;;;;;;40.75;22.15;;;;;;;-0.92;70.13;99270.72;5072446;28;20366;-78
2021/12/21 10:54:40;;;;;;;36.58;19.05;;;;;;;-0.95;69.74;99271.13;5071870;28;20036;-81
2021/12/21 10:57:11;;;;;;;27.40;13.65;;;;;;;-0.93;70.46;99277.16;5072787;28;20032;-86
2021/12/21 10:59:40;;;;;;;19.48;10.98;;;;;;;-0.97;69.93;99262.44;5071468;28;20142;-80
2021/12/21 11:02:09;;;;;;;17.48;10.25;;;;;;;-1.06;69.63;99273.34;5073343;28;20037;-85
2021/12/21 11:04:39;;;;;;;16.15;9.23;;;;;;;-1.08;70.03;99277.28;5094924;28;20059;-82
2021/12/21 11:08:08;;;;;;;;;;;;;;;-1.12;69.87;99267.97;5113384;28;20032;-83
2021/12/21 11:10:11;;;;;;;13.57;8.10;;;;;;;-1.13;70.38;99256.34;5099357;28;19947;-84
2021/12/21 11:12:48;;;;;;;9.88;6.32;;;;;;;-1.16;69.53;99264.00;5114310;28;20092;-81
2021/12/21 11:15:19;;;;;;;15.30;7.55;;;;;;;-1.14;69.67;99267.31;5111991;28;20034;-84
2021/12/21 11:17:46;;;;;;;17.08;8.57;;;;;;;-1.22;69.64;99262.91;5094968;28;20024;-84
2021/12/21 11:20:13;;;;;;;23.50;11.82;;;;;;;-1.25;69.43;99266.84;5113163;28;20034;-81
2021/12/21 11:22:43;;;;;;;24.45;12.38;;;;;;;-1.26;69.06;99262.50;5112810;28;20123;-83
2021/12/21 11:25:10;;;;;;;15.95;9.10;;;;;;;-1.23;69.28;99261.28;5113924;27;20088;-83
2021/12/21 11:27:39;;;;;;;11.25;7.60;;;;;;;-1.21;68.73;99267.28;5115273;27;20069;-79
2021/12/21 11:30:16;;;;;;;16.90;9.73;;;;;;;-1.20;68.87;99258.16;5094260;28;20391;-82
2021/12/21 11:32:44;;;;;;;22.58;10.25;;;;;;;-1.23;68.36;99263.97;5113418;28;20072;-81
2021/12/21 11:37:43;;;;;;;25.10;14.20;;;;;;;-1.24;68.97;99260.44;5113196;28;20070;-84
2021/12/21 11:40:12;;;;;;;26.38;12.30;;;;;;;-1.16;67.44;99259.44;5112542;28;20198;-83
2021/12/21 11:42:52;;;;;;;22.77;10.27;;;;;;;-1.08;68.63;99256.56;5112669;28;20056;-84
2021/12/21 11:45:23;;;;;;;23.85;13.57;;;;;;;-1.04;68.67;99251.63;5113246;28;20533;-88
2021/12/21 11:48:10;;;;;;;50.80;17.38;;;;;;;-1.01;68.98;99256.59;5114640;28;20028;-86
2021/12/21 11:50:40;;;;;;;37.90;18.38;;;;;;;-1.01;68.79;99251.19;5114610;28;20063;-87
2021/12/21 11:53:09;;;;;;;21.20;11.32;;;;;;;-0.97;68.50;99249.78;5112672;27;20031;-84
2021/12/21 11:55:38;;;;;;;20.40;10.95;;;;;;;-0.96;68.21;99250.63;5113321;28;20365;-86
2021/12/21 11:58:22;;;;;;;13.18;8.25;;;;;;;-0.93;68.67;99247.53;5099025;28;20082;-81
2021/12/21 12:00:49;;;;;;;44.03;21.45;;;;;;;-0.88;68.69;99247.75;5111314;27;20433;-85
2021/12/21 12:03:20;;;;;;;27.10;12.82;;;;;;;-0.76;68.38;99245.31;5112577;28;20404;-87
2021/12/21 12:05:55;;;;;;;20.08;8.02;;;;;;;-0.59;68.41;99245.75;5109670;28;20040;-86
2021/12/21 12:08:23;;;;;;;26.58;8.23;;;;;;;-0.48;67.87;99244.31;5098188;28;20038;-86
2021/12/21 12:11:00;;;;;;;12.85;4.95;;;;;;;-0.35;67.98;99238.97;5101212;28;20034;-83
2021/12/21 12:13:40;;;;;;;9.77;4.13;;;;;;;-0.25;66.34;99233.16;5113091;27;20023;-85
2021/12/21 12:16:10;;;;;;;6.47;3.55;;;;;;;-0.21;67.03;99237.09;5115904;28;20059;-82
2021/12/21 12:18:35;;;;;;;6.72;3.65;;;;;;;-0.14;67.14;99236.28;5112713;28;20076;-86
2021/12/21 12:21:22;;;;;;;8.40;3.72;;;;;;;-0.06;67.46;99231.50;5111733;28;20032;-85
2021/12/21 12:23:57;;;;;;;18.52;9.13;;;;;;;0.06;67.71;99238.97;5112170;28;20074;-85
2021/12/21 12:26:25;;;;;;;42.65;13.75;;;;;;;0.05;66.43;99240.00;5111103;28;20084;-85
2021/12/21 12:28:52;;;;;;;42.95;15.30;;;;;;;0.03;65.65;99242.09;5111368;28;20031;-81
2021/12/21 12:31:35;;;;;;;27.88;11.05;;;;;;;0.02;66.02;99253.91;5110532;28;20044;-83
2021/12/21 12:34:02;;;;;;;18.00;7.88;;;;;;;-0.04;65.73;99244.78;5109129;28;20118;-86
2021/12/21 12:36:50;;;;;;;23.55;11.48;;;;;;;-0.07;66.14;99243.31;5110048;28;20011;-84
2021/12/21 12:39:30;;;;;;;13.60;6.72;;;;;;;-0.11;65.43;99255.56;5110924;28;20028;-86
2021/12/21 12:42:17;;;;;;;15.38;7.53;;;;;;;-0.17;65.40;99241.06;5108385;28;20020;-82